sensor_id;sensor_type;location;lat;lon;timestamp;temperature;humidity
17891;DHT22;9071;48.220;14.480;2023-02-28T00:04:11;0.40;99.90
17891;DHT22;9071;48.220;14.480;2023-02-28T00:09:13;0.30;99.90
17891;DHT22;9071;48.220;14.480;2023-02-28T00:14:15;0.20;99.90
17891;DHT22;9071;48.220;14.480;2023-02-28T00:19:19;0.00;99.90
17891;DHT22;9071;48.220;14.480;2023-02-28T00:24:21;-0.10;99.90
17891;DHT22;9071;48.220;14.480;2023-02-28T00:29:23;-0.10;99.90
17891;DHT22;9071;48.220;14.480;2023-02-28T00:34:27;-0.20;99.90
17891;DHT22;9071;48.220;14.480;2023-02-28T00:39:29;-0.30;99.90
17891;DHT22;9071;48.220;14.480;2023-02-28T00:44:31;-0.40;99.90
17891;DHT22;9071;48.220;14.480;2023-02-28T00:49:35;-0.50;99.90
17891;DHT22;9071;48.220;14.480;2023-02-28T00:54:37;-0.40;99.90
17891;DHT22;9071;48.220;14.480;2023-02-28T00:59:39;-0.40;99.90
17891;DHT22;9071;48.220;14.480;2023-02-28T01:04:42;-0.40;99.90
17891;DHT22;9071;48.220;14.480;2023-02-28T01:09:44;-0.40;99.90
17891;DHT22;9071;48.220;14.480;2023-02-28T01:14:47;-0.40;99.90
17891;DHT22;9071;48.220;14.480;2023-02-28T01:19:53;-0.40;99.90
17891;DHT22;9071;48.220;14.480;2023-02-28T01:24:55;-0.40;99.90
17891;DHT22;9071;48.220;14.480;2023-02-28T01:29:57;-0.50;99.90
17891;DHT22;9071;48.220;14.480;2023-02-28T01:35:01;-0.50;99.90
17891;DHT22;9071;48.220;14.480;2023-02-28T01:40:04;-0.50;99.90
17891;DHT22;9071;48.220;14.480;2023-02-28T01:45:18;-0.50;99.90
17891;DHT22;9071;48.220;14.480;2023-02-28T01:50:25;-0.50;99.90
17891;DHT22;9071;48.220;14.480;2023-02-28T01:55:28;-0.50;99.90
17891;DHT22;9071;48.220;14.480;2023-02-28T02:00:31;-0.50;99.90
17891;DHT22;9071;48.220;14.480;2023-02-28T02:05:37;-0.60;99.90
17891;DHT22;9071;48.220;14.480;2023-02-28T02:10:41;-0.60;99.90
17891;DHT22;9071;48.220;14.480;2023-02-28T02:15:49;-0.50;99.90
17891;DHT22;9071;48.220;14.480;2023-02-28T02:21:25;-0.50;99.90
17891;DHT22;9071;48.220;14.480;2023-02-28T02:26:52;-0.60;99.90
17891;DHT22;9071;48.220;14.480;2023-02-28T02:37:40;-0.60;99.90
17891;DHT22;9071;48.220;14.480;2023-02-28T02:42:49;-0.70;99.90
17891;DHT22;9071;48.220;14.480;2023-02-28T02:47:53;-0.70;99.90
17891;DHT22;9071;48.220;14.480;2023-02-28T02:53:00;-0.70;99.90
17891;DHT22;9071;48.220;14.480;2023-02-28T02:58:07;-0.60;99.90
17891;DHT22;9071;48.220;14.480;2023-02-28T03:03:10;-0.70;99.90
17891;DHT22;9071;48.220;14.480;2023-02-28T03:08:14;-0.70;99.90
17891;DHT22;9071;48.220;14.480;2023-02-28T03:13:31;-0.60;99.90
17891;DHT22;9071;48.220;14.480;2023-02-28T03:18:42;-0.70;99.90
17891;DHT22;9071;48.220;14.480;2023-02-28T03:23:55;-0.80;99.90
17891;DHT22;9071;48.220;14.480;2023-02-28T03:29:03;-0.70;99.90
17891;DHT22;9071;48.220;14.480;2023-02-28T03:34:13;-0.80;99.90
17891;DHT22;9071;48.220;14.480;2023-02-28T03:39:23;-0.90;99.90
17891;DHT22;9071;48.220;14.480;2023-02-28T03:44:30;-1.00;99.90
17891;DHT22;9071;48.220;14.480;2023-02-28T03:49:36;-1.00;99.90
17891;DHT22;9071;48.220;14.480;2023-02-28T03:54:47;-0.90;99.90
17891;DHT22;9071;48.220;14.480;2023-02-28T03:59:54;-0.80;99.90
17891;DHT22;9071;48.220;14.480;2023-02-28T04:04:59;-0.90;99.90
17891;DHT22;9071;48.220;14.480;2023-02-28T04:10:04;-0.90;99.90
17891;DHT22;9071;48.220;14.480;2023-02-28T04:15:07;-0.90;99.90
17891;DHT22;9071;48.220;14.480;2023-02-28T04:20:11;-1.00;99.90
17891;DHT22;9071;48.220;14.480;2023-02-28T04:25:15;-1.00;99.90
17891;DHT22;9071;48.220;14.480;2023-02-28T04:30:17;-1.00;99.90
17891;DHT22;9071;48.220;14.480;2023-02-28T04:35:19;-1.10;99.90
17891;DHT22;9071;48.220;14.480;2023-02-28T04:40:23;-1.10;99.90
17891;DHT22;9071;48.220;14.480;2023-02-28T04:45:25;-1.20;99.90
17891;DHT22;9071;48.220;14.480;2023-02-28T04:50:27;-1.20;99.90
17891;DHT22;9071;48.220;14.480;2023-02-28T04:55:30;-1.10;99.90
17891;DHT22;9071;48.220;14.480;2023-02-28T05:00:32;-1.00;99.90
17891;DHT22;9071;48.220;14.480;2023-02-28T05:05:34;-1.10;99.90
17891;DHT22;9071;48.220;14.480;2023-02-28T05:10:38;-1.20;99.90
17891;DHT22;9071;48.220;14.480;2023-02-28T05:15:40;-1.20;99.90
17891;DHT22;9071;48.220;14.480;2023-02-28T05:20:42;-1.20;99.90
17891;DHT22;9071;48.220;14.480;2023-02-28T05:25:46;-1.30;99.90
17891;DHT22;9071;48.220;14.480;2023-02-28T05:30:48;-1.30;99.90
17891;DHT22;9071;48.220;14.480;2023-02-28T05:35:50;-1.40;99.90
17891;DHT22;9071;48.220;14.480;2023-02-28T05:40:54;-1.50;99.90
17891;DHT22;9071;48.220;14.480;2023-02-28T05:45:56;-1.20;99.90
17891;DHT22;9071;48.220;14.480;2023-02-28T05:50:58;-1.30;99.90
17891;DHT22;9071;48.220;14.480;2023-02-28T05:56:02;-1.10;99.90
17891;DHT22;9071;48.220;14.480;2023-02-28T06:01:21;-1.30;99.90
17891;DHT22;9071;48.220;14.480;2023-02-28T06:06:23;-1.60;99.90
17891;DHT22;9071;48.220;14.480;2023-02-28T06:11:27;-1.70;99.90
17891;DHT22;9071;48.220;14.480;2023-02-28T06:16:31;-1.90;99.90
17891;DHT22;9071;48.220;14.480;2023-02-28T06:21:33;-2.00;99.90
17891;DHT22;9071;48.220;14.480;2023-02-28T06:26:37;-1.90;99.90
17891;DHT22;9071;48.220;14.480;2023-02-28T06:31:39;-1.60;99.90
17891;DHT22;9071;48.220;14.480;2023-02-28T06:36:42;-1.20;99.90
17891;DHT22;9071;48.220;14.480;2023-02-28T06:41:45;-0.90;99.90
17891;DHT22;9071;48.220;14.480;2023-02-28T06:46:49;1.90;99.90
17891;DHT22;9071;48.220;14.480;2023-02-28T06:51:51;4.60;99.90
17891;DHT22;9071;48.220;14.480;2023-02-28T06:56:54;6.10;99.90
17891;DHT22;9071;48.220;14.480;2023-02-28T07:01:57;6.50;99.90
17891;DHT22;9071;48.220;14.480;2023-02-28T07:06:59;6.70;99.90
17891;DHT22;9071;48.220;14.480;2023-02-28T07:12:02;7.00;99.90
17891;DHT22;9071;48.220;14.480;2023-02-28T07:17:07;8.00;99.90
17891;DHT22;9071;48.220;14.480;2023-02-28T07:22:09;7.40;99.90
17891;DHT22;9071;48.220;14.480;2023-02-28T07:27:12;6.70;99.90
17891;DHT22;9071;48.220;14.480;2023-02-28T07:32:26;7.70;99.90
17891;DHT22;9071;48.220;14.480;2023-02-28T07:37:28;7.90;99.90
17891;DHT22;9071;48.220;14.480;2023-02-28T07:42:33;7.60;99.90
17891;DHT22;9071;48.220;14.480;2023-02-28T07:47:35;7.90;99.90
17891;DHT22;9071;48.220;14.480;2023-02-28T07:52:38;8.80;99.90
17891;DHT22;9071;48.220;14.480;2023-02-28T07:57:42;9.30;99.90
17891;DHT22;9071;48.220;14.480;2023-02-28T08:02:44;8.80;99.90
17891;DHT22;9071;48.220;14.480;2023-02-28T08:07:46;9.90;99.90
17891;DHT22;9071;48.220;14.480;2023-02-28T08:12:51;9.40;99.90
17891;DHT22;9071;48.220;14.480;2023-02-28T08:17:53;9.20;99.90
17891;DHT22;9071;48.220;14.480;2023-02-28T08:22:56;8.60;99.90
17891;DHT22;9071;48.220;14.480;2023-02-28T08:28:00;8.20;99.90
17891;DHT22;9071;48.220;14.480;2023-02-28T08:33:02;9.00;99.90
17891;DHT22;9071;48.220;14.480;2023-02-28T08:38:04;8.80;99.90
17891;DHT22;9071;48.220;14.480;2023-02-28T08:43:09;8.00;99.90
17891;DHT22;9071;48.220;14.480;2023-02-28T08:48:11;7.80;99.90
17891;DHT22;9071;48.220;14.480;2023-02-28T08:53:14;7.70;99.90
17891;DHT22;9071;48.220;14.480;2023-02-28T08:58:17;6.50;99.90
17891;DHT22;9071;48.220;14.480;2023-02-28T09:03:20;6.30;99.90
17891;DHT22;9071;48.220;14.480;2023-02-28T09:08:23;5.90;99.90
17891;DHT22;9071;48.220;14.480;2023-02-28T09:13:27;5.80;99.90
17891;DHT22;9071;48.220;14.480;2023-02-28T09:18:30;5.60;99.90
17891;DHT22;9071;48.220;14.480;2023-02-28T09:23:32;5.80;99.90
17891;DHT22;9071;48.220;14.480;2023-02-28T09:28:35;5.70;99.90
17891;DHT22;9071;48.220;14.480;2023-02-28T09:33:37;5.50;99.90
17891;DHT22;9071;48.220;14.480;2023-02-28T09:38:40;5.00;99.90
17891;DHT22;9071;48.220;14.480;2023-02-28T09:43:47;4.80;99.90
17891;DHT22;9071;48.220;14.480;2023-02-28T09:48:51;4.90;99.90
17891;DHT22;9071;48.220;14.480;2023-02-28T09:53:56;4.90;99.90
17891;DHT22;9071;48.220;14.480;2023-02-28T09:59:02;4.90;99.90
17891;DHT22;9071;48.220;14.480;2023-02-28T10:04:12;4.90;99.90
17891;DHT22;9071;48.220;14.480;2023-02-28T10:09:19;5.10;99.90
17891;DHT22;9071;48.220;14.480;2023-02-28T10:14:27;5.10;99.90
17891;DHT22;9071;48.220;14.480;2023-02-28T10:19:33;5.30;99.90
17891;DHT22;9071;48.220;14.480;2023-02-28T10:24:40;5.50;99.90
17891;DHT22;9071;48.220;14.480;2023-02-28T10:29:46;5.60;99.90
17891;DHT22;9071;48.220;14.480;2023-02-28T10:34:51;5.70;99.90
17891;DHT22;9071;48.220;14.480;2023-02-28T10:39:54;5.70;99.90
17891;DHT22;9071;48.220;14.480;2023-02-28T10:45:11;5.70;99.90
17891;DHT22;9071;48.220;14.480;2023-02-28T10:50:28;5.90;99.90
17891;DHT22;9071;48.220;14.480;2023-02-28T10:55:30;5.90;99.90
17891;DHT22;9071;48.220;14.480;2023-02-28T11:00:35;6.10;99.90
17891;DHT22;9071;48.220;14.480;2023-02-28T11:05:37;6.20;99.90
17891;DHT22;9071;48.220;14.480;2023-02-28T11:10:43;6.50;99.90
17891;DHT22;9071;48.220;14.480;2023-02-28T11:15:52;6.80;99.90
17891;DHT22;9071;48.220;14.480;2023-02-28T11:20:57;6.60;99.90
17891;DHT22;9071;48.220;14.480;2023-02-28T11:26:01;6.90;99.90
17891;DHT22;9071;48.220;14.480;2023-02-28T11:31:17;7.20;99.90
17891;DHT22;9071;48.220;14.480;2023-02-28T11:36:22;7.20;99.90
17891;DHT22;9071;48.220;14.480;2023-02-28T11:41:38;7.30;99.90
17891;DHT22;9071;48.220;14.480;2023-02-28T11:46:49;7.10;99.90
17891;DHT22;9071;48.220;14.480;2023-02-28T11:51:53;7.40;99.90
17891;DHT22;9071;48.220;14.480;2023-02-28T11:57:06;7.40;99.90
17891;DHT22;9071;48.220;14.480;2023-02-28T12:02:24;7.60;99.90
17891;DHT22;9071;48.220;14.480;2023-02-28T12:07:33;7.60;99.90
17891;DHT22;9071;48.220;14.480;2023-02-28T12:12:43;7.70;99.90
17891;DHT22;9071;48.220;14.480;2023-02-28T12:18:13;7.80;99.90
17891;DHT22;9071;48.220;14.480;2023-02-28T12:23:33;7.90;99.90
17891;DHT22;9071;48.220;14.480;2023-02-28T12:28:43;7.50;99.90
17891;DHT22;9071;48.220;14.480;2023-02-28T12:33:52;7.60;99.90
17891;DHT22;9071;48.220;14.480;2023-02-28T12:39:00;7.60;99.90
17891;DHT22;9071;48.220;14.480;2023-02-28T12:44:06;7.80;99.90
17891;DHT22;9071;48.220;14.480;2023-02-28T12:49:15;7.90;99.90
17891;DHT22;9071;48.220;14.480;2023-02-28T12:54:22;7.50;99.90
17891;DHT22;9071;48.220;14.480;2023-02-28T12:59:32;7.70;99.90
17891;DHT22;9071;48.220;14.480;2023-02-28T13:10:17;7.40;99.90
17891;DHT22;9071;48.220;14.480;2023-02-28T13:15:22;7.80;99.90
17891;DHT22;9071;48.220;14.480;2023-02-28T13:20:27;7.70;99.90
17891;DHT22;9071;48.220;14.480;2023-02-28T13:25:52;7.70;99.90
17891;DHT22;9071;48.220;14.480;2023-02-28T13:31:05;7.50;99.90
17891;DHT22;9071;48.220;14.480;2023-02-28T13:36:10;7.40;99.90
17891;DHT22;9071;48.220;14.480;2023-02-28T13:41:41;7.70;99.90
17891;DHT22;9071;48.220;14.480;2023-02-28T13:52:22;7.60;99.90
17891;DHT22;9071;48.220;14.480;2023-02-28T13:57:34;8.00;99.90
17891;DHT22;9071;48.220;14.480;2023-02-28T14:02:52;8.10;99.90
17891;DHT22;9071;48.220;14.480;2023-02-28T14:07:59;7.80;99.90
17891;DHT22;9071;48.220;14.480;2023-02-28T14:13:12;7.80;99.90
17891;DHT22;9071;48.220;14.480;2023-02-28T14:18:29;7.90;99.90
17891;DHT22;9071;48.220;14.480;2023-02-28T14:23:54;7.80;99.90
17891;DHT22;9071;48.220;14.480;2023-02-28T14:29:14;7.90;99.90
17891;DHT22;9071;48.220;14.480;2023-02-28T14:34:39;7.70;99.90
17891;DHT22;9071;48.220;14.480;2023-02-28T14:39:44;7.70;99.90
17891;DHT22;9071;48.220;14.480;2023-02-28T14:44:53;7.60;99.90
17891;DHT22;9071;48.220;14.480;2023-02-28T14:49:57;7.60;99.90
17891;DHT22;9071;48.220;14.480;2023-02-28T14:55:03;7.40;99.90
17891;DHT22;9071;48.220;14.480;2023-02-28T15:00:13;7.30;99.90
17891;DHT22;9071;48.220;14.480;2023-02-28T15:05:28;7.20;99.90
17891;DHT22;9071;48.220;14.480;2023-02-28T15:10:30;7.10;99.90
17891;DHT22;9071;48.220;14.480;2023-02-28T15:15:44;7.10;99.90
17891;DHT22;9071;48.220;14.480;2023-02-28T15:20:47;6.90;99.90
17891;DHT22;9071;48.220;14.480;2023-02-28T15:25:50;6.80;99.90
17891;DHT22;9071;48.220;14.480;2023-02-28T15:31:00;6.70;99.90
17891;DHT22;9071;48.220;14.480;2023-02-28T15:36:12;5.90;99.90
17891;DHT22;9071;48.220;14.480;2023-02-28T15:41:25;5.60;99.90
17891;DHT22;9071;48.220;14.480;2023-02-28T15:46:29;5.60;99.90
17891;DHT22;9071;48.220;14.480;2023-02-28T15:51:34;5.60;99.90
17891;DHT22;9071;48.220;14.480;2023-02-28T15:56:42;5.50;99.90
17891;DHT22;9071;48.220;14.480;2023-02-28T16:01:46;5.40;99.90
17891;DHT22;9071;48.220;14.480;2023-02-28T16:07:01;5.20;99.90
17891;DHT22;9071;48.220;14.480;2023-02-28T16:12:03;5.10;99.90
17891;DHT22;9071;48.220;14.480;2023-02-28T16:17:16;5.10;99.90
17891;DHT22;9071;48.220;14.480;2023-02-28T16:22:21;5.00;99.90
17891;DHT22;9071;48.220;14.480;2023-02-28T16:27:27;4.90;99.90
17891;DHT22;9071;48.220;14.480;2023-02-28T16:32:35;4.90;99.90
17891;DHT22;9071;48.220;14.480;2023-02-28T16:37:37;4.80;99.90
17891;DHT22;9071;48.220;14.480;2023-02-28T16:42:40;4.70;99.90
17891;DHT22;9071;48.220;14.480;2023-02-28T16:47:44;4.70;99.90
17891;DHT22;9071;48.220;14.480;2023-02-28T16:52:46;4.60;99.90
17891;DHT22;9071;48.220;14.480;2023-02-28T16:57:51;4.60;99.90
17891;DHT22;9071;48.220;14.480;2023-02-28T17:02:56;4.60;99.90
17891;DHT22;9071;48.220;14.480;2023-02-28T17:07:59;4.60;99.90
17891;DHT22;9071;48.220;14.480;2023-02-28T17:13:01;4.60;99.90
17891;DHT22;9071;48.220;14.480;2023-02-28T17:18:05;4.50;99.90
17891;DHT22;9071;48.220;14.480;2023-02-28T17:23:07;4.40;99.90
17891;DHT22;9071;48.220;14.480;2023-02-28T17:28:10;4.40;99.90
17891;DHT22;9071;48.220;14.480;2023-02-28T17:33:13;4.30;99.90
17891;DHT22;9071;48.220;14.480;2023-02-28T17:38:17;4.30;99.90
17891;DHT22;9071;48.220;14.480;2023-02-28T17:43:19;4.30;99.90
17891;DHT22;9071;48.220;14.480;2023-02-28T17:48:23;4.30;99.90
17891;DHT22;9071;48.220;14.480;2023-02-28T17:53:25;4.20;99.90
17891;DHT22;9071;48.220;14.480;2023-02-28T17:58:27;4.20;99.90
17891;DHT22;9071;48.220;14.480;2023-02-28T18:03:33;4.10;99.90
17891;DHT22;9071;48.220;14.480;2023-02-28T18:08:35;4.10;99.90
17891;DHT22;9071;48.220;14.480;2023-02-28T18:13:37;4.00;99.90
17891;DHT22;9071;48.220;14.480;2023-02-28T18:18:41;4.00;99.90
17891;DHT22;9071;48.220;14.480;2023-02-28T18:23:43;4.00;99.90
17891;DHT22;9071;48.220;14.480;2023-02-28T18:28:48;3.90;99.90
17891;DHT22;9071;48.220;14.480;2023-02-28T18:33:52;3.90;99.90
17891;DHT22;9071;48.220;14.480;2023-02-28T18:38:54;3.90;99.90
17891;DHT22;9071;48.220;14.480;2023-02-28T18:43:56;3.90;99.90
17891;DHT22;9071;48.220;14.480;2023-02-28T18:49:00;3.80;99.90
17891;DHT22;9071;48.220;14.480;2023-02-28T18:54:03;3.80;99.90
17891;DHT22;9071;48.220;14.480;2023-02-28T18:59:05;3.80;99.90
17891;DHT22;9071;48.220;14.480;2023-02-28T19:04:11;3.70;99.90
17891;DHT22;9071;48.220;14.480;2023-02-28T19:09:13;3.80;99.90
17891;DHT22;9071;48.220;14.480;2023-02-28T19:14:15;3.80;99.90
17891;DHT22;9071;48.220;14.480;2023-02-28T19:19:19;3.70;99.90
17891;DHT22;9071;48.220;14.480;2023-02-28T19:24:21;3.60;99.90
17891;DHT22;9071;48.220;14.480;2023-02-28T19:29:23;3.60;99.90
17891;DHT22;9071;48.220;14.480;2023-02-28T19:34:26;3.50;99.90
17891;DHT22;9071;48.220;14.480;2023-02-28T19:39:29;3.40;99.90
17891;DHT22;9071;48.220;14.480;2023-02-28T19:44:40;3.20;99.90
17891;DHT22;9071;48.220;14.480;2023-02-28T19:49:44;3.00;99.90
17891;DHT22;9071;48.220;14.480;2023-02-28T19:54:46;2.80;99.90
17891;DHT22;9071;48.220;14.480;2023-02-28T19:59:48;2.70;99.90
17891;DHT22;9071;48.220;14.480;2023-02-28T20:04:51;2.70;99.90
17891;DHT22;9071;48.220;14.480;2023-02-28T20:09:54;2.60;99.90
17891;DHT22;9071;48.220;14.480;2023-02-28T20:14:56;2.40;99.90
17891;DHT22;9071;48.220;14.480;2023-02-28T20:20:00;2.30;99.90
17891;DHT22;9071;48.220;14.480;2023-02-28T20:25:03;2.30;99.90
17891;DHT22;9071;48.220;14.480;2023-02-28T20:30:07;2.20;99.90
17891;DHT22;9071;48.220;14.480;2023-02-28T20:35:11;2.10;99.90
17891;DHT22;9071;48.220;14.480;2023-02-28T20:40:13;2.10;99.90
17891;DHT22;9071;48.220;14.480;2023-02-28T20:45:16;2.00;99.90
17891;DHT22;9071;48.220;14.480;2023-02-28T20:50:19;1.90;99.90
17891;DHT22;9071;48.220;14.480;2023-02-28T20:55:21;1.80;99.90
17891;DHT22;9071;48.220;14.480;2023-02-28T21:00:23;1.60;99.90
17891;DHT22;9071;48.220;14.480;2023-02-28T21:05:27;1.50;99.90
17891;DHT22;9071;48.220;14.480;2023-02-28T21:10:30;1.50;99.90
17891;DHT22;9071;48.220;14.480;2023-02-28T21:15:36;1.60;99.90
17891;DHT22;9071;48.220;14.480;2023-02-28T21:20:39;1.70;99.90
17891;DHT22;9071;48.220;14.480;2023-02-28T21:25:41;1.60;99.90
17891;DHT22;9071;48.220;14.480;2023-02-28T21:30:43;1.50;99.90
17891;DHT22;9071;48.220;14.480;2023-02-28T21:35:47;1.20;99.90
17891;DHT22;9071;48.220;14.480;2023-02-28T21:40:49;1.20;99.90
17891;DHT22;9071;48.220;14.480;2023-02-28T21:45:51;1.20;99.90
17891;DHT22;9071;48.220;14.480;2023-02-28T21:50:56;1.00;99.90
17891;DHT22;9071;48.220;14.480;2023-02-28T21:55:59;0.80;99.90
17891;DHT22;9071;48.220;14.480;2023-02-28T22:01:05;0.80;99.90
17891;DHT22;9071;48.220;14.480;2023-02-28T22:06:11;0.90;99.90
17891;DHT22;9071;48.220;14.480;2023-02-28T22:11:15;0.90;99.90
17891;DHT22;9071;48.220;14.480;2023-02-28T22:16:18;0.80;99.90
17891;DHT22;9071;48.220;14.480;2023-02-28T22:21:23;0.50;99.90
17891;DHT22;9071;48.220;14.480;2023-02-28T22:26:25;0.10;99.90
17891;DHT22;9071;48.220;14.480;2023-02-28T22:31:28;-0.20;99.90
17891;DHT22;9071;48.220;14.480;2023-02-28T22:36:32;-0.50;99.90
17891;DHT22;9071;48.220;14.480;2023-02-28T22:41:35;-0.70;99.90
17891;DHT22;9071;48.220;14.480;2023-02-28T22:46:37;-0.90;99.90
17891;DHT22;9071;48.220;14.480;2023-02-28T22:51:40;-1.00;99.90
17891;DHT22;9071;48.220;14.480;2023-02-28T22:56:42;-1.10;99.90
17891;DHT22;9071;48.220;14.480;2023-02-28T23:01:44;-1.20;99.90
17891;DHT22;9071;48.220;14.480;2023-02-28T23:06:48;-1.20;99.90
17891;DHT22;9071;48.220;14.480;2023-02-28T23:11:50;-1.20;99.90
17891;DHT22;9071;48.220;14.480;2023-02-28T23:16:53;-1.20;99.90
17891;DHT22;9071;48.220;14.480;2023-02-28T23:21:57;-1.20;99.90
17891;DHT22;9071;48.220;14.480;2023-02-28T23:27:02;-1.20;99.90
17891;DHT22;9071;48.220;14.480;2023-02-28T23:32:05;-1.20;99.90
17891;DHT22;9071;48.220;14.480;2023-02-28T23:37:09;-1.10;99.90
17891;DHT22;9071;48.220;14.480;2023-02-28T23:42:11;-1.10;99.90
17891;DHT22;9071;48.220;14.480;2023-02-28T23:47:13;-1.10;99.90
17891;DHT22;9071;48.220;14.480;2023-02-28T23:52:17;-1.10;99.90
17891;DHT22;9071;48.220;14.480;2023-02-28T23:57:20;-1.20;99.90
